sensor_id;sensor_type;location;lat;lon;timestamp;pressure;altitude;pressure_sealevel;temperature;humidity
64080;BME280;51042;49.696;10.808;2023-05-09T00:01:32;98827.66;;;13.86;77.93
64080;BME280;51042;49.696;10.808;2023-05-09T00:03:58;98824.91;;;13.86;78.21
64080;BME280;51042;49.696;10.808;2023-05-09T00:06:23;98821.69;;;13.87;78.13
64080;BME280;51042;49.696;10.808;2023-05-09T00:08:49;98823.78;;;13.83;78.25
64080;BME280;51042;49.696;10.808;2023-05-09T00:11:15;98824.69;;;13.80;78.30
64080;BME280;51042;49.696;10.808;2023-05-09T00:13:40;98811.78;;;13.77;78.64
64080;BME280;51042;49.696;10.808;2023-05-09T00:16:08;98815.75;;;13.76;78.92
64080;BME280;51042;49.696;10.808;2023-05-09T00:18:33;98812.25;;;13.76;77.95
64080;BME280;51042;49.696;10.808;2023-05-09T00:21:00;98807.03;;;13.78;78.02
64080;BME280;51042;49.696;10.808;2023-05-09T00:23:27;98807.81;;;13.78;77.19
64080;BME280;51042;49.696;10.808;2023-05-09T00:25:53;98809.03;;;13.77;76.80
64080;BME280;51042;49.696;10.808;2023-05-09T00:28:18;98801.53;;;13.78;76.55
64080;BME280;51042;49.696;10.808;2023-05-09T00:30:44;98807.38;;;13.80;75.67
64080;BME280;51042;49.696;10.808;2023-05-09T00:33:09;98809.03;;;13.77;76.44
64080;BME280;51042;49.696;10.808;2023-05-09T00:35:34;98804.41;;;13.74;78.75
64080;BME280;51042;49.696;10.808;2023-05-09T00:38:00;98804.97;;;13.69;79.53
64080;BME280;51042;49.696;10.808;2023-05-09T00:40:25;98802.47;;;13.62;78.77
64080;BME280;51042;49.696;10.808;2023-05-09T00:42:50;98798.28;;;13.58;77.04
64080;BME280;51042;49.696;10.808;2023-05-09T00:45:16;98798.59;;;13.60;77.87
64080;BME280;51042;49.696;10.808;2023-05-09T00:47:41;98797.38;;;13.61;79.00
64080;BME280;51042;49.696;10.808;2023-05-09T00:50:07;98793.97;;;13.57;79.84
64080;BME280;51042;49.696;10.808;2023-05-09T00:52:33;98796.31;;;13.45;81.88
64080;BME280;51042;49.696;10.808;2023-05-09T00:54:58;98791.81;;;13.39;81.78
64080;BME280;51042;49.696;10.808;2023-05-09T00:57:24;98791.03;;;13.38;81.68
64080;BME280;51042;49.696;10.808;2023-05-09T00:59:49;98791.16;;;13.35;81.79
64080;BME280;51042;49.696;10.808;2023-05-09T01:02:16;98793.91;;;13.35;81.96
64080;BME280;51042;49.696;10.808;2023-05-09T01:04:43;98786.75;;;13.37;81.54
64080;BME280;51042;49.696;10.808;2023-05-09T01:09:49;98787.06;;;13.39;80.54
64080;BME280;51042;49.696;10.808;2023-05-09T01:12:30;98780.78;;;13.39;81.09
64080;BME280;51042;49.696;10.808;2023-05-09T01:17:50;98778.41;;;13.28;82.96
64080;BME280;51042;49.696;10.808;2023-05-09T01:23:00;98770.56;;;13.14;83.85
64080;BME280;51042;49.696;10.808;2023-05-09T01:25:40;98764.72;;;13.12;83.47
64080;BME280;51042;49.696;10.808;2023-05-09T01:28:16;98758.53;;;13.08;83.72
64080;BME280;51042;49.696;10.808;2023-05-09T01:30:44;98757.56;;;13.02;83.61
64080;BME280;51042;49.696;10.808;2023-05-09T01:33:12;98758.13;;;12.97;84.10
64080;BME280;51042;49.696;10.808;2023-05-09T01:35:42;98758.97;;;12.94;83.97
64080;BME280;51042;49.696;10.808;2023-05-09T01:38:11;98754.72;;;12.93;83.55
64080;BME280;51042;49.696;10.808;2023-05-09T01:40:41;98746.75;;;12.95;83.67
64080;BME280;51042;49.696;10.808;2023-05-09T01:43:08;98757.34;;;12.96;83.41
64080;BME280;51042;49.696;10.808;2023-05-09T01:45:38;98750.63;;;12.97;83.16
64080;BME280;51042;49.696;10.808;2023-05-09T01:48:06;98751.41;;;12.98;83.24
64080;BME280;51042;49.696;10.808;2023-05-09T01:50:34;98748.63;;;12.98;82.32
64080;BME280;51042;49.696;10.808;2023-05-09T01:53:00;98756.78;;;13.01;82.33
64080;BME280;51042;49.696;10.808;2023-05-09T01:55:28;98747.31;;;13.02;81.81
64080;BME280;51042;49.696;10.808;2023-05-09T01:57:56;98754.03;;;13.01;81.31
64080;BME280;51042;49.696;10.808;2023-05-09T02:00:23;98749.72;;;13.00;80.83
64080;BME280;51042;49.696;10.808;2023-05-09T02:02:49;98750.06;;;13.02;80.35
64080;BME280;51042;49.696;10.808;2023-05-09T02:05:15;98748.84;;;13.03;80.64
64080;BME280;51042;49.696;10.808;2023-05-09T02:07:42;98751.47;;;13.07;79.94
64080;BME280;51042;49.696;10.808;2023-05-09T02:10:11;98749.50;;;13.07;78.95
64080;BME280;51042;49.696;10.808;2023-05-09T02:12:37;98747.53;;;13.08;78.37
64080;BME280;51042;49.696;10.808;2023-05-09T02:15:04;98745.53;;;13.08;79.82
64080;BME280;51042;49.696;10.808;2023-05-09T02:17:30;98748.63;;;13.11;79.44
64080;BME280;51042;49.696;10.808;2023-05-09T02:19:56;98749.84;;;13.09;78.11
64080;BME280;51042;49.696;10.808;2023-05-09T02:22:21;98755.34;;;13.09;79.17
64080;BME280;51042;49.696;10.808;2023-05-09T02:24:47;98753.03;;;13.08;79.45
64080;BME280;51042;49.696;10.808;2023-05-09T02:27:13;98755.91;;;13.04;79.33
64080;BME280;51042;49.696;10.808;2023-05-09T02:29:43;98752.69;;;12.93;80.52
64080;BME280;51042;49.696;10.808;2023-05-09T02:32:16;98751.84;;;12.84;81.52
64080;BME280;51042;49.696;10.808;2023-05-09T02:34:45;98746.66;;;12.73;82.62
64080;BME280;51042;49.696;10.808;2023-05-09T02:37:12;98749.19;;;12.67;83.41
64080;BME280;51042;49.696;10.808;2023-05-09T02:39:39;98751.28;;;12.63;83.29
64080;BME280;51042;49.696;10.808;2023-05-09T02:42:05;98745.88;;;12.60;82.73
64080;BME280;51042;49.696;10.808;2023-05-09T02:44:32;98748.22;;;12.61;82.40
64080;BME280;51042;49.696;10.808;2023-05-09T02:46:58;98748.63;;;12.60;82.34
64080;BME280;51042;49.696;10.808;2023-05-09T02:49:24;98736.84;;;12.59;82.44
64080;BME280;51042;49.696;10.808;2023-05-09T02:51:50;98745.22;;;12.56;82.65
64080;BME280;51042;49.696;10.808;2023-05-09T02:54:15;98735.84;;;12.53;82.45
64080;BME280;51042;49.696;10.808;2023-05-09T02:56:42;98733.09;;;12.53;82.55
64080;BME280;51042;49.696;10.808;2023-05-09T02:59:07;98739.50;;;12.50;82.08
64080;BME280;51042;49.696;10.808;2023-05-09T03:01:32;98729.69;;;12.49;82.06
64080;BME280;51042;49.696;10.808;2023-05-09T03:03:58;98734.44;;;12.49;82.21
64080;BME280;51042;49.696;10.808;2023-05-09T03:06:23;98738.72;;;12.50;81.82
64080;BME280;51042;49.696;10.808;2023-05-09T03:08:48;98747.00;;;12.50;82.12
64080;BME280;51042;49.696;10.808;2023-05-09T03:11:14;98736.75;;;12.50;82.02
64080;BME280;51042;49.696;10.808;2023-05-09T03:13:39;98728.16;;;12.48;82.38
64080;BME280;51042;49.696;10.808;2023-05-09T03:16:05;98728.59;;;12.47;82.67
64080;BME280;51042;49.696;10.808;2023-05-09T03:18:30;98733.78;;;12.45;83.41
64080;BME280;51042;49.696;10.808;2023-05-09T03:20:56;98728.34;;;12.41;84.27
64080;BME280;51042;49.696;10.808;2023-05-09T03:23:21;98731.66;;;12.36;85.45
64080;BME280;51042;49.696;10.808;2023-05-09T03:25:47;98726.28;;;12.33;85.07
64080;BME280;51042;49.696;10.808;2023-05-09T03:28:12;98727.13;;;12.30;85.62
64080;BME280;51042;49.696;10.808;2023-05-09T03:30:38;98725.59;;;12.28;85.85
64080;BME280;51042;49.696;10.808;2023-05-09T03:33:03;98727.13;;;12.30;86.33
64080;BME280;51042;49.696;10.808;2023-05-09T03:35:28;98727.56;;;12.28;85.47
64080;BME280;51042;49.696;10.808;2023-05-09T03:37:54;98722.06;;;12.28;85.73
64080;BME280;51042;49.696;10.808;2023-05-09T03:40:19;98718.53;;;12.27;87.49
64080;BME280;51042;49.696;10.808;2023-05-09T03:42:45;98718.22;;;12.25;87.77
64080;BME280;51042;49.696;10.808;2023-05-09T03:45:10;98709.28;;;12.21;88.20
64080;BME280;51042;49.696;10.808;2023-05-09T03:47:36;98713.28;;;12.20;88.29
64080;BME280;51042;49.696;10.808;2023-05-09T03:50:01;98706.09;;;12.23;88.04
64080;BME280;51042;49.696;10.808;2023-05-09T03:52:28;98707.75;;;12.20;87.79
64080;BME280;51042;49.696;10.808;2023-05-09T03:54:53;98716.78;;;12.21;87.30
64080;BME280;51042;49.696;10.808;2023-05-09T03:57:18;98718.78;;;12.20;86.79
64080;BME280;51042;49.696;10.808;2023-05-09T03:59:44;98718.22;;;12.25;87.20
64080;BME280;51042;49.696;10.808;2023-05-09T04:02:09;98717.69;;;12.31;87.08
64080;BME280;51042;49.696;10.808;2023-05-09T04:04:34;98724.38;;;12.30;87.11
64080;BME280;51042;49.696;10.808;2023-05-09T04:07:00;98730.53;;;12.34;86.37
64080;BME280;51042;49.696;10.808;2023-05-09T04:09:25;98725.50;;;12.32;87.02
64080;BME280;51042;49.696;10.808;2023-05-09T04:11:52;98728.91;;;12.36;86.95
64080;BME280;51042;49.696;10.808;2023-05-09T04:14:17;98727.81;;;12.46;86.93
64080;BME280;51042;49.696;10.808;2023-05-09T04:16:42;98735.84;;;12.53;86.27
64080;BME280;51042;49.696;10.808;2023-05-09T04:19:07;98737.75;;;12.56;85.54
64080;BME280;51042;49.696;10.808;2023-05-09T04:21:33;98725.41;;;12.61;86.42
64080;BME280;51042;49.696;10.808;2023-05-09T04:23:59;98729.50;;;12.56;86.20
64080;BME280;51042;49.696;10.808;2023-05-09T04:26:24;98718.91;;;12.55;86.92
64080;BME280;51042;49.696;10.808;2023-05-09T04:28:50;98728.59;;;12.59;86.80
64080;BME280;51042;49.696;10.808;2023-05-09T04:31:16;98722.53;;;12.64;86.43
64080;BME280;51042;49.696;10.808;2023-05-09T04:33:43;98723.22;;;12.68;86.56
64080;BME280;51042;49.696;10.808;2023-05-09T04:36:08;98727.25;;;12.77;85.60
64080;BME280;51042;49.696;10.808;2023-05-09T04:38:34;98729.88;;;13.05;84.26
64080;BME280;51042;49.696;10.808;2023-05-09T04:40:59;98734.63;;;13.18;81.53
64080;BME280;51042;49.696;10.808;2023-05-09T04:43:25;98730.84;;;13.37;81.38
64080;BME280;51042;49.696;10.808;2023-05-09T04:45:51;98738.97;;;14.40;79.53
64080;BME280;51042;49.696;10.808;2023-05-09T04:48:17;98736.97;;;15.21;71.25
64080;BME280;51042;49.696;10.808;2023-05-09T04:50:42;98738.22;;;14.80;70.99
64080;BME280;51042;49.696;10.808;2023-05-09T04:53:08;98736.03;;;15.15;70.91
64080;BME280;51042;49.696;10.808;2023-05-09T04:55:33;98732.53;;;16.32;67.38
64080;BME280;51042;49.696;10.808;2023-05-09T04:57:59;98728.31;;;17.69;59.45
64080;BME280;51042;49.696;10.808;2023-05-09T05:00:24;98726.66;;;18.45;55.58
64080;BME280;51042;49.696;10.808;2023-05-09T05:02:50;98723.78;;;18.68;54.15
64080;BME280;51042;49.696;10.808;2023-05-09T05:05:15;98727.78;;;19.37;51.82
64080;BME280;51042;49.696;10.808;2023-05-09T05:07:40;98725.22;;;19.34;52.89
64080;BME280;51042;49.696;10.808;2023-05-09T05:10:06;98727.47;;;19.50;51.05
64080;BME280;51042;49.696;10.808;2023-05-09T05:12:32;98721.66;;;19.33;52.94
64080;BME280;51042;49.696;10.808;2023-05-09T05:14:57;98720.81;;;18.57;53.63
64080;BME280;51042;49.696;10.808;2023-05-09T05:17:22;98718.09;;;19.12;52.92
64080;BME280;51042;49.696;10.808;2023-05-09T05:19:48;98716.25;;;19.24;52.34
64080;BME280;51042;49.696;10.808;2023-05-09T05:22:13;98717.09;;;19.30;51.45
64080;BME280;51042;49.696;10.808;2023-05-09T05:24:39;98707.59;;;19.83;50.12
64080;BME280;51042;49.696;10.808;2023-05-09T05:27:04;98710.34;;;18.82;53.11
64080;BME280;51042;49.696;10.808;2023-05-09T05:29:29;98712.94;;;19.05;52.57
64080;BME280;51042;49.696;10.808;2023-05-09T05:31:55;98709.84;;;20.05;50.23
64080;BME280;51042;49.696;10.808;2023-05-09T05:34:20;98714.59;;;19.98;49.54
64080;BME280;51042;49.696;10.808;2023-05-09T05:36:45;98717.34;;;19.12;52.48
64080;BME280;51042;49.696;10.808;2023-05-09T05:39:11;98716.78;;;18.14;55.44
64080;BME280;51042;49.696;10.808;2023-05-09T05:41:37;98718.88;;;17.90;56.18
64080;BME280;51042;49.696;10.808;2023-05-09T05:44:02;98716.66;;;16.84;58.32
64080;BME280;51042;49.696;10.808;2023-05-09T05:46:27;98715.97;;;16.56;59.68
64080;BME280;51042;49.696;10.808;2023-05-09T05:48:53;98709.03;;;16.01;61.66
64080;BME280;51042;49.696;10.808;2023-05-09T05:51:18;98706.16;;;15.77;63.59
64080;BME280;51042;49.696;10.808;2023-05-09T05:53:43;98703.34;;;16.55;61.32
64080;BME280;51042;49.696;10.808;2023-05-09T05:56:09;98695.50;;;17.20;58.25
64080;BME280;51042;49.696;10.808;2023-05-09T05:58:34;98701.72;;;18.06;56.05
64080;BME280;51042;49.696;10.808;2023-05-09T06:00:59;98698.84;;;18.30;54.62
64080;BME280;51042;49.696;10.808;2023-05-09T06:03:26;98693.28;;;18.45;54.27
64080;BME280;51042;49.696;10.808;2023-05-09T06:05:51;98697.91;;;18.62;53.52
64080;BME280;51042;49.696;10.808;2023-05-09T06:08:16;98691.63;;;17.65;55.05
64080;BME280;51042;49.696;10.808;2023-05-09T06:10:42;98684.59;;;16.59;58.22
64080;BME280;51042;49.696;10.808;2023-05-09T06:13:07;98687.25;;;15.66;60.71
64080;BME280;51042;49.696;10.808;2023-05-09T06:15:32;98690.44;;;15.19;63.49
64080;BME280;51042;49.696;10.808;2023-05-09T06:17:58;98684.75;;;15.23;63.56
64080;BME280;51042;49.696;10.808;2023-05-09T06:20:23;98685.06;;;15.34;62.92
64080;BME280;51042;49.696;10.808;2023-05-09T06:22:48;98686.44;;;15.29;63.08
64080;BME280;51042;49.696;10.808;2023-05-09T06:25:14;98679.06;;;15.44;61.98
64080;BME280;51042;49.696;10.808;2023-05-09T06:27:39;98680.03;;;15.60;60.95
64080;BME280;51042;49.696;10.808;2023-05-09T06:30:06;98672.63;;;15.38;60.62
64080;BME280;51042;49.696;10.808;2023-05-09T06:32:31;98670.16;;;15.22;61.31
64080;BME280;51042;49.696;10.808;2023-05-09T06:34:57;98677.34;;;15.20;61.82
64080;BME280;51042;49.696;10.808;2023-05-09T06:37:22;98672.63;;;15.47;60.51
64080;BME280;51042;49.696;10.808;2023-05-09T06:39:47;98679.84;;;15.45;60.57
64080;BME280;51042;49.696;10.808;2023-05-09T06:42:14;98666.94;;;15.42;60.00
64080;BME280;51042;49.696;10.808;2023-05-09T06:44:39;98674.94;;;15.58;59.64
64080;BME280;51042;49.696;10.808;2023-05-09T06:47:05;98678.56;;;16.10;58.45
64080;BME280;51042;49.696;10.808;2023-05-09T06:49:30;98673.03;;;16.52;57.19
64080;BME280;51042;49.696;10.808;2023-05-09T06:51:55;98674.75;;;16.82;56.50
64080;BME280;51042;49.696;10.808;2023-05-09T06:54:21;98661.19;;;16.60;55.83
64080;BME280;51042;49.696;10.808;2023-05-09T06:56:46;98662.56;;;16.05;58.05
64080;BME280;51042;49.696;10.808;2023-05-09T06:59:11;98661.22;;;15.91;59.09
64080;BME280;51042;49.696;10.808;2023-05-09T07:01:37;98650.16;;;15.91;58.80
64080;BME280;51042;49.696;10.808;2023-05-09T07:04:04;98654.78;;;15.85;59.94
64080;BME280;51042;49.696;10.808;2023-05-09T07:06:29;98642.69;;;16.15;58.03
64080;BME280;51042;49.696;10.808;2023-05-09T07:08:54;98648.63;;;15.81;57.74
64080;BME280;51042;49.696;10.808;2023-05-09T07:11:20;98644.66;;;15.64;59.63
64080;BME280;51042;49.696;10.808;2023-05-09T07:13:45;98649.72;;;15.74;58.91
64080;BME280;51042;49.696;10.808;2023-05-09T07:16:10;98642.50;;;15.77;58.75
64080;BME280;51042;49.696;10.808;2023-05-09T07:18:36;98649.56;;;15.87;57.99
64080;BME280;51042;49.696;10.808;2023-05-09T07:21:01;98638.06;;;16.21;57.63
64080;BME280;51042;49.696;10.808;2023-05-09T07:23:26;98634.13;;;16.46;56.15
64080;BME280;51042;49.696;10.808;2023-05-09T07:25:58;98638.34;;;16.32;56.38
64080;BME280;51042;49.696;10.808;2023-05-09T07:28:23;98633.66;;;16.06;56.52
64080;BME280;51042;49.696;10.808;2023-05-09T07:30:50;98621.69;;;16.00;56.70
64080;BME280;51042;49.696;10.808;2023-05-09T07:33:15;98629.28;;;16.23;56.87
64080;BME280;51042;49.696;10.808;2023-05-09T07:35:40;98629.75;;;16.63;54.94
64080;BME280;51042;49.696;10.808;2023-05-09T07:38:06;98621.16;;;16.61;55.04
64080;BME280;51042;49.696;10.808;2023-05-09T07:40:31;98612.47;;;16.68;54.67
64080;BME280;51042;49.696;10.808;2023-05-09T07:43:00;98611.91;;;16.88;54.15
64080;BME280;51042;49.696;10.808;2023-05-09T07:45:25;98607.88;;;16.89;54.70
64080;BME280;51042;49.696;10.808;2023-05-09T07:47:50;98597.56;;;16.90;54.31
64080;BME280;51042;49.696;10.808;2023-05-09T07:50:16;98604.22;;;16.59;54.69
64080;BME280;51042;49.696;10.808;2023-05-09T07:52:41;98602.28;;;16.74;54.14
64080;BME280;51042;49.696;10.808;2023-05-09T07:55:06;98595.50;;;16.99;54.68
64080;BME280;51042;49.696;10.808;2023-05-09T07:57:32;98592.88;;;17.34;51.90
64080;BME280;51042;49.696;10.808;2023-05-09T07:59:57;98594.09;;;17.19;53.20
64080;BME280;51042;49.696;10.808;2023-05-09T08:02:22;98593.75;;;17.26;52.81
64080;BME280;51042;49.696;10.808;2023-05-09T08:04:48;98581.94;;;17.01;53.45
64080;BME280;51042;49.696;10.808;2023-05-09T08:07:13;98588.03;;;17.05;53.03
64080;BME280;51042;49.696;10.808;2023-05-09T08:09:38;98582.19;;;17.42;53.88
64080;BME280;51042;49.696;10.808;2023-05-09T08:12:04;98575.06;;;17.79;52.88
64080;BME280;51042;49.696;10.808;2023-05-09T08:14:30;98567.16;;;18.07;51.19
64080;BME280;51042;49.696;10.808;2023-05-09T08:16:55;98573.25;;;18.41;49.89
64080;BME280;51042;49.696;10.808;2023-05-09T08:19:20;98567.09;;;18.36;50.22
64080;BME280;51042;49.696;10.808;2023-05-09T08:21:47;98576.53;;;18.24;50.11
64080;BME280;51042;49.696;10.808;2023-05-09T08:24:12;98566.59;;;18.53;50.64
64080;BME280;51042;49.696;10.808;2023-05-09T08:26:38;98570.16;;;18.73;50.03
64080;BME280;51042;49.696;10.808;2023-05-09T08:29:03;98551.06;;;18.81;49.80
64080;BME280;51042;49.696;10.808;2023-05-09T08:31:28;98554.41;;;18.65;49.44
64080;BME280;51042;49.696;10.808;2023-05-09T08:33:54;98549.75;;;18.07;50.79
64080;BME280;51042;49.696;10.808;2023-05-09T08:36:19;98537.44;;;17.93;50.46
64080;BME280;51042;49.696;10.808;2023-05-09T08:38:45;98550.56;;;18.48;50.68
64080;BME280;51042;49.696;10.808;2023-05-09T08:41:10;98536.09;;;18.99;49.40
64080;BME280;51042;49.696;10.808;2023-05-09T08:43:35;98532.59;;;19.24;48.53
64080;BME280;51042;49.696;10.808;2023-05-09T08:46:08;98529.03;;;19.24;47.53
64080;BME280;51042;49.696;10.808;2023-05-09T08:48:35;98527.63;;;19.60;46.94
64080;BME280;51042;49.696;10.808;2023-05-09T08:51:03;98522.59;;;19.12;47.21
64080;BME280;51042;49.696;10.808;2023-05-09T08:53:30;98509.09;;;18.59;48.31
64080;BME280;51042;49.696;10.808;2023-05-09T08:56:00;98499.19;;;18.78;48.07
64080;BME280;51042;49.696;10.808;2023-05-09T08:58:26;98506.94;;;19.40;47.49
64080;BME280;51042;49.696;10.808;2023-05-09T09:00:52;98507.59;;;19.55;45.45
64080;BME280;51042;49.696;10.808;2023-05-09T09:03:19;98498.41;;;19.49;45.46
64080;BME280;51042;49.696;10.808;2023-05-09T09:05:44;98500.81;;;19.10;44.95
64080;BME280;51042;49.696;10.808;2023-05-09T09:08:11;98505.91;;;19.12;45.67
64080;BME280;51042;49.696;10.808;2023-05-09T09:10:39;98502.91;;;19.41;45.00
64080;BME280;51042;49.696;10.808;2023-05-09T09:13:11;98491.84;;;19.01;45.42
64080;BME280;51042;49.696;10.808;2023-05-09T09:15:37;98492.66;;;18.61;45.71
64080;BME280;51042;49.696;10.808;2023-05-09T09:18:10;98489.63;;;19.56;44.89
64080;BME280;51042;49.696;10.808;2023-05-09T09:20:40;98493.34;;;20.16;43.54
64080;BME280;51042;49.696;10.808;2023-05-09T09:23:10;98479.81;;;20.41;42.80
64080;BME280;51042;49.696;10.808;2023-05-09T09:25:38;98478.94;;;20.66;42.67
64080;BME280;51042;49.696;10.808;2023-05-09T09:28:04;98471.31;;;20.18;44.99
64080;BME280;51042;49.696;10.808;2023-05-09T09:30:30;98471.41;;;19.92;42.47
64080;BME280;51042;49.696;10.808;2023-05-09T09:32:57;98460.00;;;20.33;43.60
64080;BME280;51042;49.696;10.808;2023-05-09T09:35:23;98448.22;;;20.55;42.30
64080;BME280;51042;49.696;10.808;2023-05-09T09:37:48;98455.38;;;20.72;42.58
64080;BME280;51042;49.696;10.808;2023-05-09T09:40:21;98445.59;;;21.22;43.21
64080;BME280;51042;49.696;10.808;2023-05-09T09:42:50;98440.91;;;20.79;41.46
64080;BME280;51042;49.696;10.808;2023-05-09T09:45:17;98436.56;;;19.66;43.19
64080;BME280;51042;49.696;10.808;2023-05-09T09:47:43;98436.44;;;19.86;43.20
64080;BME280;51042;49.696;10.808;2023-05-09T09:50:11;98446.97;;;19.71;44.10
64080;BME280;51042;49.696;10.808;2023-05-09T09:52:56;98435.13;;;20.24;43.36
64080;BME280;51042;49.696;10.808;2023-05-09T09:55:22;98429.91;;;20.37;42.06
64080;BME280;51042;49.696;10.808;2023-05-09T09:57:48;98430.25;;;20.61;43.07
64080;BME280;51042;49.696;10.808;2023-05-09T10:00:15;98419.88;;;20.78;41.75
64080;BME280;51042;49.696;10.808;2023-05-09T10:02:52;98421.75;;;20.33;43.71
64080;BME280;51042;49.696;10.808;2023-05-09T10:05:19;98421.94;;;21.06;43.51
64080;BME280;51042;49.696;10.808;2023-05-09T10:07:53;98412.06;;;21.05;41.34
64080;BME280;51042;49.696;10.808;2023-05-09T10:10:24;98406.25;;;21.14;41.35
64080;BME280;51042;49.696;10.808;2023-05-09T10:12:50;98394.66;;;20.34;41.85
64080;BME280;51042;49.696;10.808;2023-05-09T10:15:20;98391.25;;;20.13;42.04
64080;BME280;51042;49.696;10.808;2023-05-09T10:17:46;98387.59;;;19.96;42.64
64080;BME280;51042;49.696;10.808;2023-05-09T10:20:14;98378.22;;;20.47;43.03
64080;BME280;51042;49.696;10.808;2023-05-09T10:22:41;98376.50;;;20.72;43.11
64080;BME280;51042;49.696;10.808;2023-05-09T10:25:09;98376.53;;;21.11;40.09
64080;BME280;51042;49.696;10.808;2023-05-09T10:27:40;98380.06;;;21.78;39.23
64080;BME280;51042;49.696;10.808;2023-05-09T10:30:12;98370.66;;;21.76;38.95
64080;BME280;51042;49.696;10.808;2023-05-09T10:35:16;98361.31;;;20.90;43.49
64080;BME280;51042;49.696;10.808;2023-05-09T10:37:46;98360.28;;;20.93;41.10
64080;BME280;51042;49.696;10.808;2023-05-09T10:40:12;98353.94;;;20.75;42.09
64080;BME280;51042;49.696;10.808;2023-05-09T10:42:42;98346.06;;;20.68;41.74
64080;BME280;51042;49.696;10.808;2023-05-09T10:45:09;98346.03;;;21.63;39.72
64080;BME280;51042;49.696;10.808;2023-05-09T10:47:36;98346.88;;;22.27;37.44
64080;BME280;51042;49.696;10.808;2023-05-09T10:50:02;98333.22;;;22.12;37.12
64080;BME280;51042;49.696;10.808;2023-05-09T10:52:32;98317.94;;;21.39;37.92
64080;BME280;51042;49.696;10.808;2023-05-09T10:54:58;98315.91;;;21.11;38.07
64080;BME280;51042;49.696;10.808;2023-05-09T10:57:26;98318.47;;;21.26;39.21
64080;BME280;51042;49.696;10.808;2023-05-09T10:59:53;98302.81;;;21.81;37.99
64080;BME280;51042;49.696;10.808;2023-05-09T11:02:20;98306.25;;;22.61;37.88
64080;BME280;51042;49.696;10.808;2023-05-09T11:04:45;98314.13;;;23.28;36.19
64080;BME280;51042;49.696;10.808;2023-05-09T11:07:29;98291.47;;;23.26;34.07
64080;BME280;51042;49.696;10.808;2023-05-09T11:10:09;98286.16;;;22.63;35.46
64080;BME280;51042;49.696;10.808;2023-05-09T11:12:58;98280.69;;;22.46;37.14
64080;BME280;51042;49.696;10.808;2023-05-09T11:15:25;98282.44;;;22.49;36.42
64080;BME280;51042;49.696;10.808;2023-05-09T11:18:08;98279.06;;;22.92;34.85
64080;BME280;51042;49.696;10.808;2023-05-09T11:20:34;98286.88;;;23.29;33.76
64080;BME280;51042;49.696;10.808;2023-05-09T11:23:06;98266.22;;;22.77;33.60
64080;BME280;51042;49.696;10.808;2023-05-09T11:25:34;98263.69;;;23.04;32.93
64080;BME280;51042;49.696;10.808;2023-05-09T11:28:00;98263.06;;;23.16;32.86
64080;BME280;51042;49.696;10.808;2023-05-09T11:30:39;98259.69;;;22.64;33.27
64080;BME280;51042;49.696;10.808;2023-05-09T11:33:20;98255.13;;;23.20;35.70
64080;BME280;51042;49.696;10.808;2023-05-09T11:38:39;98235.91;;;23.11;34.33
64080;BME280;51042;49.696;10.808;2023-05-09T11:41:08;98235.81;;;23.66;31.38
64080;BME280;51042;49.696;10.808;2023-05-09T11:43:37;98238.56;;;23.90;31.24
64080;BME280;51042;49.696;10.808;2023-05-09T11:46:03;98231.31;;;24.19;30.41
64080;BME280;51042;49.696;10.808;2023-05-09T11:48:29;98225.00;;;24.31;31.31
64080;BME280;51042;49.696;10.808;2023-05-09T11:50:54;98230.56;;;23.56;32.07
64080;BME280;51042;49.696;10.808;2023-05-09T11:53:19;98220.03;;;24.24;31.01
64080;BME280;51042;49.696;10.808;2023-05-09T11:55:45;98207.88;;;22.87;31.05
64080;BME280;51042;49.696;10.808;2023-05-09T11:58:11;98215.88;;;23.02;33.80
64080;BME280;51042;49.696;10.808;2023-05-09T12:00:42;98203.63;;;24.28;32.85
64080;BME280;51042;49.696;10.808;2023-05-09T12:03:09;98208.00;;;24.88;31.04
64080;BME280;51042;49.696;10.808;2023-05-09T12:05:34;98199.44;;;25.12;28.89
64080;BME280;51042;49.696;10.808;2023-05-09T12:08:03;98194.84;;;23.81;31.61
64080;BME280;51042;49.696;10.808;2023-05-09T12:10:30;98191.47;;;23.45;30.96
64080;BME280;51042;49.696;10.808;2023-05-09T12:12:56;98184.69;;;23.97;31.60
64080;BME280;51042;49.696;10.808;2023-05-09T12:15:22;98179.19;;;23.30;31.23
64080;BME280;51042;49.696;10.808;2023-05-09T12:18:01;98181.91;;;23.35;31.40
64080;BME280;51042;49.696;10.808;2023-05-09T12:20:38;98172.47;;;24.32;30.74
64080;BME280;51042;49.696;10.808;2023-05-09T12:23:11;98172.72;;;24.92;31.83
64080;BME280;51042;49.696;10.808;2023-05-09T12:25:38;98171.97;;;25.57;29.95
64080;BME280;51042;49.696;10.808;2023-05-09T12:28:33;98165.50;;;25.96;28.69
64080;BME280;51042;49.696;10.808;2023-05-09T12:30:59;98161.00;;;26.14;29.65
64080;BME280;51042;49.696;10.808;2023-05-09T12:33:25;98148.59;;;26.10;28.27
64080;BME280;51042;49.696;10.808;2023-05-09T12:36:07;98147.66;;;26.28;29.93
64080;BME280;51042;49.696;10.808;2023-05-09T12:38:34;98145.53;;;26.62;29.63
64080;BME280;51042;49.696;10.808;2023-05-09T12:41:05;98141.72;;;26.60;28.91
64080;BME280;51042;49.696;10.808;2023-05-09T12:43:35;98142.25;;;26.51;28.55
64080;BME280;51042;49.696;10.808;2023-05-09T12:46:02;98141.63;;;26.11;29.00
64080;BME280;51042;49.696;10.808;2023-05-09T12:48:29;98139.97;;;25.47;28.16
64080;BME280;51042;49.696;10.808;2023-05-09T12:51:01;98130.38;;;25.30;28.16
64080;BME280;51042;49.696;10.808;2023-05-09T12:53:27;98132.25;;;25.01;29.07
64080;BME280;51042;49.696;10.808;2023-05-09T12:56:01;98121.69;;;23.66;29.30
64080;BME280;51042;49.696;10.808;2023-05-09T12:58:29;98118.28;;;22.93;30.75
64080;BME280;51042;49.696;10.808;2023-05-09T13:00:57;98115.84;;;24.15;29.73
64080;BME280;51042;49.696;10.808;2023-05-09T13:03:23;98110.25;;;24.73;30.72